Time;durP1;ratioP1;P1;durP2;ratioP2;P2;SDS_P1;SDS_P2;PMS_P1;PMS_P2;Temp;Humidity;BMP_temperature;BMP_pressure;BME280_temperature;BME280_humidity;BME280_pressure;Samples;Min_cycle;Max_cycle;Signal;HPM_P1;HPM_P2
2024/04/13 00:01:29;;;;;;;;;;;11.00;1.00;;;;;;5425541;26;20022;-80
2024/04/13 00:03:54;;;;;;;;;;;11.00;1.00;;;;;;5455743;26;19936;-80
2024/04/13 00:06:21;;;;;;;;;;;10.90;1.00;;;;;;5455898;26;19940;-80
2024/04/13 00:08:47;;;;;;;;;;;11.00;1.00;;;;;;5449651;26;19929;-80
2024/04/13 00:11:12;;;;;;;;;;;10.90;1.00;;;;;;5419533;26;19936;-80
2024/04/13 00:13:38;;;;;;;;;;;11.00;1.00;;;;;;5419627;26;19960;-77
2024/04/13 00:16:04;;;;;;;;;;;11.00;1.00;;;;;;5417185;26;19929;-78
2024/04/13 00:18:33;;;;;;;;;;;10.90;1.00;;;;;;5418137;26;19929;-78
2024/04/13 00:21:05;;;;;;;;;;;10.90;1.00;;;;;;5447208;26;20005;-77
2024/04/13 00:23:31;;;;;;;;;;;10.90;1.00;;;;;;5442900;26;20017;-77
2024/04/13 00:25:57;;;;;;;;;;;10.90;1.00;;;;;;5419230;26;19937;-77
2024/04/13 00:28:23;;;;;;;;;;;10.90;1.00;;;;;;5419737;26;19955;-80
2024/04/13 00:30:48;;;;;;;;;;;11.00;1.00;;;;;;5419724;26;19937;-80
2024/04/13 00:33:14;;;;;;;;;;;10.90;1.00;;;;;;5417941;26;19935;-80
2024/04/13 00:35:41;;;;;;;;;;;10.90;1.00;;;;;;5419440;26;19929;-80
2024/04/13 00:38:14;;;;;;;;;;;10.90;1.00;;;;;;5419216;26;20292;-80
2024/04/13 00:40:42;;;;;;;;;;;10.90;1.00;;;;;;5419350;26;20274;-80
2024/04/13 00:43:11;;;;;;;;;;;10.90;1.00;;;;;;5419456;26;19928;-80
2024/04/13 00:45:44;;;;;;;;;;;10.90;1.00;;;;;;5419058;26;19940;-80
2024/04/13 00:48:11;;;;;;;;;;;10.90;1.00;;;;;;5400238;26;20268;-80
2024/04/13 00:50:38;;;;;;;;;;;10.90;1.00;;;;;;5383445;26;19971;-80
2024/04/13 00:53:03;;;;;;;;;;;10.90;1.00;;;;;;5395762;26;20264;-80
2024/04/13 00:55:43;;;;;;;;;;;10.80;1.00;;;;;;5418809;26;19935;-80
2024/04/13 00:58:10;;;;;;;;;;;10.80;1.00;;;;;;5419451;26;19936;-78
2024/04/13 01:00:37;;;;;;;;;;;10.80;1.00;;;;;;5418556;26;20253;-77
2024/04/13 01:03:03;;;;;;;;;;;10.90;1.00;;;;;;5418695;26;19928;-77
2024/04/13 01:05:32;;;;;;;;;;;10.80;1.00;;;;;;5418587;26;19936;-77
2024/04/13 01:07:58;;;;;;;;;;;10.80;1.00;;;;;;5408154;26;19998;-78
2024/04/13 01:10:24;;;;;;;;;;;10.80;1.00;;;;;;5418204;26;20380;-78
2024/04/13 01:12:50;;;;;;;;;;;10.80;1.00;;;;;;5418454;26;19936;-78
2024/04/13 01:15:16;;;;;;;;;;;10.80;1.00;;;;;;5418798;26;19929;-77
2024/04/13 01:17:43;;;;;;;;;;;10.80;1.00;;;;;;5418554;26;19929;-78
2024/04/13 01:20:12;;;;;;;;;;;10.70;1.00;;;;;;5419969;26;19936;-77
2024/04/13 01:22:43;;;;;;;;;;;10.70;1.00;;;;;;5418721;26;19929;-77
2024/04/13 01:25:13;;;;;;;;;;;10.70;1.00;;;;;;5383307;26;19934;-77
2024/04/13 01:27:39;;;;;;;;;;;10.70;1.00;;;;;;5403767;26;20368;-77
2024/04/13 01:30:08;;;;;;;;;;;10.60;1.00;;;;;;5390080;26;19936;-80
2024/04/13 01:32:33;;;;;;;;;;;10.60;1.00;;;;;;5385890;26;19929;-80
2024/04/13 01:35:10;;;;;;;;;;;10.60;1.00;;;;;;5418192;26;19935;-80
2024/04/13 01:37:41;;;;;;;;;;;10.60;1.00;;;;;;5418366;26;19998;-80
2024/04/13 01:40:11;;;;;;;;;;;10.50;1.00;;;;;;5417298;26;20247;-80
2024/04/13 01:42:41;;;;;;;;;;;10.50;1.00;;;;;;5420231;26;19961;-80
2024/04/13 01:45:23;;;;;;;;;;;10.50;1.00;;;;;;5446926;26;19935;-80
2024/04/13 01:47:48;;;;;;;;;;;10.40;1.00;;;;;;5422933;26;19940;-80
2024/04/13 01:50:14;;;;;;;;;;;10.40;1.00;;;;;;5418087;26;19929;-80
2024/04/13 01:52:40;;;;;;;;;;;10.40;1.00;;;;;;5447121;26;19928;-80
2024/04/13 01:55:17;;;;;;;;;;;10.40;1.00;;;;;;5453746;26;19928;-80
2024/04/13 01:57:43;;;;;;;;;;;10.50;1.40;;;;;;5430840;26;19937;-80
2024/04/13 02:00:08;;;;;;;;;;;10.50;1.00;;;;;;5418321;26;19998;-80
2024/04/13 02:02:35;;;;;;;;;;;10.50;2.70;;;;;;5417793;26;19962;-80
2024/04/13 02:05:01;;;;;;;;;;;10.50;1.00;;;;;;5417486;26;19945;-80
2024/04/13 02:07:29;;;;;;;;;;;10.40;2.00;;;;;;5447721;26;19936;-80
2024/04/13 02:09:54;;;;;;;;;;;10.40;1.00;;;;;;5430999;26;19936;-80
2024/04/13 02:12:21;;;;;;;;;;;10.40;1.40;;;;;;5417686;26;19929;-80
2024/04/13 02:14:47;;;;;;;;;;;10.40;1.10;;;;;;5416975;26;19936;-80
2024/04/13 02:17:12;;;;;;;;;;;10.40;1.00;;;;;;5417391;26;19937;-80
2024/04/13 02:19:42;;;;;;;;;;;10.40;2.40;;;;;;5417434;26;19936;-80
2024/04/13 02:22:08;;;;;;;;;;;10.30;1.00;;;;;;5417825;26;19929;-80
2024/04/13 02:24:35;;;;;;;;;;;10.30;1.00;;;;;;5420952;26;19957;-80
2024/04/13 02:27:02;;;;;;;;;;;10.20;1.00;;;;;;5420871;26;20005;-80
2024/04/13 02:29:28;;;;;;;;;;;10.20;2.60;;;;;;5438226;26;19929;-78
2024/04/13 02:31:59;;;;;;;;;;;10.20;3.30;;;;;;5427050;26;19940;-78
2024/04/13 02:34:25;;;;;;;;;;;10.20;1.20;;;;;;5420740;26;19933;-78
2024/04/13 02:36:52;;;;;;;;;;;10.20;3.80;;;;;;5420626;26;20027;-78
2024/04/13 02:39:18;;;;;;;;;;;10.10;3.90;;;;;;5420921;26;19937;-78
2024/04/13 02:41:44;;;;;;;;;;;10.10;3.60;;;;;;5420776;26;19938;-78
2024/04/13 02:44:11;;;;;;;;;;;10.10;3.80;;;;;;5435108;26;19939;-78
2024/04/13 02:46:37;;;;;;;;;;;10.10;1.60;;;;;;5426640;26;19936;-78
2024/04/13 02:49:05;;;;;;;;;;;10.00;3.60;;;;;;5454493;26;19938;-78
2024/04/13 02:51:30;;;;;;;;;;;10.00;4.80;;;;;;5420677;26;19945;-78
2024/04/13 02:53:56;;;;;;;;;;;10.00;6.40;;;;;;5420538;26;19939;-78
2024/04/13 02:56:21;;;;;;;;;;;9.90;8.70;;;;;;5420513;26;19929;-78
2024/04/13 02:58:47;;;;;;;;;;;9.90;8.50;;;;;;5419823;26;19929;-78
2024/04/13 03:01:13;;;;;;;;;;;9.80;11.70;;;;;;5420816;26;19929;-80
2024/04/13 03:03:38;;;;;;;;;;;9.80;13.10;;;;;;5419985;26;19936;-80
2024/04/13 03:06:09;;;;;;;;;;;9.80;15.60;;;;;;5408036;26;20003;-80
2024/04/13 03:08:35;;;;;;;;;;;9.80;15.10;;;;;;5419856;26;19929;-80
2024/04/13 03:11:01;;;;;;;;;;;9.80;13.90;;;;;;5420042;26;19929;-80
2024/04/13 03:13:27;;;;;;;;;;;9.80;16.50;;;;;;5419651;26;19932;-79
2024/04/13 03:15:57;;;;;;;;;;;9.80;15.50;;;;;;5395947;26;19936;-79
2024/04/13 03:18:23;;;;;;;;;;;9.80;17.60;;;;;;5420175;26;19936;-77
2024/04/13 03:20:49;;;;;;;;;;;9.80;14.60;;;;;;5428124;26;19929;-77
2024/04/13 03:23:14;;;;;;;;;;;9.80;17.00;;;;;;5420410;26;19936;-78
2024/04/13 03:25:41;;;;;;;;;;;9.90;16.40;;;;;;5419845;26;19928;-78
2024/04/13 03:28:08;;;;;;;;;;;9.90;10.90;;;;;;5420008;26;19997;-78
2024/04/13 03:30:36;;;;;;;;;;;9.90;9.20;;;;;;5387299;26;19929;-78
2024/04/13 03:33:12;;;;;;;;;;;9.80;11.10;;;;;;5384547;26;19929;-78
2024/04/13 03:35:37;;;;;;;;;;;9.80;9.10;;;;;;5410417;26;20006;-78
2024/04/13 03:38:04;;;;;;;;;;;9.80;5.40;;;;;;5440298;26;19933;-78
2024/04/13 03:40:30;;;;;;;;;;;9.80;7.80;;;;;;5428298;26;19998;-76
2024/04/13 03:42:55;;;;;;;;;;;9.80;6.30;;;;;;5398709;26;19936;-78
2024/04/13 03:45:21;;;;;;;;;;;9.80;4.60;;;;;;5420553;26;19935;-80
2024/04/13 03:47:46;;;;;;;;;;;9.80;7.30;;;;;;5419130;26;19929;-80
2024/04/13 03:50:13;;;;;;;;;;;9.80;4.60;;;;;;5398442;26;19939;-80
2024/04/13 03:52:41;;;;;;;;;;;9.80;5.20;;;;;;5440034;26;19928;-79
2024/04/13 03:55:06;;;;;;;;;;;9.90;5.80;;;;;;5436907;26;19997;-79
2024/04/13 03:57:35;;;;;;;;;;;9.90;5.80;;;;;;5419521;26;19936;-79
2024/04/13 04:00:01;;;;;;;;;;;9.90;9.60;;;;;;5420370;26;19933;-78
2024/04/13 04:02:29;;;;;;;;;;;9.90;6.80;;;;;;5419571;26;19936;-78
2024/04/13 04:04:54;;;;;;;;;;;9.90;9.70;;;;;;5419484;26;19932;-78
2024/04/13 04:07:20;;;;;;;;;;;10.00;10.70;;;;;;5437065;26;19929;-78
2024/04/13 04:09:47;;;;;;;;;;;9.90;15.30;;;;;;5419577;26;20263;-77
2024/04/13 04:12:12;;;;;;;;;;;9.90;12.90;;;;;;5419555;26;19961;-78
2024/04/13 04:14:41;;;;;;;;;;;10.00;10.80;;;;;;5419692;26;20002;-78
2024/04/13 04:17:07;;;;;;;;;;;10.00;9.90;;;;;;5419283;26;19933;-78
2024/04/13 04:19:32;;;;;;;;;;;9.90;9.00;;;;;;5419508;26;20051;-78
2024/04/13 04:22:00;;;;;;;;;;;9.90;10.40;;;;;;5418912;26;19928;-78
2024/04/13 04:24:25;;;;;;;;;;;9.90;7.80;;;;;;5416341;26;20297;-78
2024/04/13 04:26:51;;;;;;;;;;;9.90;6.30;;;;;;5417443;26;19936;-78
2024/04/13 04:29:17;;;;;;;;;;;9.90;5.50;;;;;;5419254;26;19935;-78
2024/04/13 04:31:47;;;;;;;;;;;9.80;3.90;;;;;;5419747;26;19929;-78
2024/04/13 04:34:17;;;;;;;;;;;9.80;5.00;;;;;;5421708;26;19929;-76
2024/04/13 04:36:43;;;;;;;;;;;9.80;4.80;;;;;;5417731;26;19940;-76
2024/04/13 04:39:08;;;;;;;;;;;9.80;1.70;;;;;;5419163;26;19929;-76
2024/04/13 04:41:35;;;;;;;;;;;9.70;1.00;;;;;;5419557;26;19929;-76
2024/04/13 04:44:01;;;;;;;;;;;9.70;1.10;;;;;;5429312;26;19928;-76
2024/04/13 04:46:29;;;;;;;;;;;9.70;1.70;;;;;;5445356;26;19940;-78
2024/04/13 04:48:54;;;;;;;;;;;9.70;2.70;;;;;;5435719;26;20376;-78
2024/04/13 04:51:20;;;;;;;;;;;9.70;2.80;;;;;;5418986;26;19991;-78
2024/04/13 04:53:46;;;;;;;;;;;9.70;2.20;;;;;;5413795;26;19953;-77
2024/04/13 04:56:29;;;;;;;;;;;9.70;2.90;;;;;;5418750;26;19936;-78
2024/04/13 04:58:56;;;;;;;;;;;9.70;5.30;;;;;;5418824;26;19929;-78
2024/04/13 05:01:22;;;;;;;;;;;9.80;6.30;;;;;;5419518;26;19929;-76
2024/04/13 05:03:47;;;;;;;;;;;9.80;7.60;;;;;;5418991;26;19936;-76
2024/04/13 05:06:13;;;;;;;;;;;9.90;8.70;;;;;;5394304;26;19929;-76
2024/04/13 05:08:38;;;;;;;;;;;9.90;8.60;;;;;;5449749;26;19928;-75
2024/04/13 05:11:05;;;;;;;;;;;10.00;7.60;;;;;;5421167;26;19933;-76
2024/04/13 05:13:31;;;;;;;;;;;10.00;10.70;;;;;;5394558;26;19940;-77
2024/04/13 05:15:56;;;;;;;;;;;10.10;9.00;;;;;;5418839;26;19933;-75
2024/04/13 05:18:23;;;;;;;;;;;10.10;11.70;;;;;;5417626;26;19936;-76
2024/04/13 05:20:49;;;;;;;;;;;10.30;9.80;;;;;;5393620;26;19998;-75
2024/04/13 05:23:15;;;;;;;;;;;10.30;9.30;;;;;;5416217;26;19940;-76
2024/04/13 05:25:40;;;;;;;;;;;10.40;8.90;;;;;;5418370;26;19936;-77
2024/04/13 05:28:06;;;;;;;;;;;10.40;10.20;;;;;;5418220;26;19929;-77
2024/04/13 05:30:32;;;;;;;;;;;10.40;9.00;;;;;;5423464;26;19929;-76
2024/04/13 05:32:57;;;;;;;;;;;10.50;8.90;;;;;;5418341;26;19929;-76
2024/04/13 05:35:23;;;;;;;;;;;10.50;8.00;;;;;;5425476;26;19928;-82
2024/04/13 05:37:53;;;;;;;;;;;10.50;8.30;;;;;;5432682;26;19929;-82
2024/04/13 05:40:25;;;;;;;;;;;10.60;8.50;;;;;;5418146;26;19936;-82
2024/04/13 05:42:59;;;;;;;;;;;10.60;5.10;;;;;;5418084;26;19936;-82
2024/04/13 05:45:25;;;;;;;;;;;10.70;7.00;;;;;;5396309;26;19937;-83
2024/04/13 05:47:50;;;;;;;;;;;10.80;3.30;;;;;;5418036;26;19929;-77
2024/04/13 05:50:16;;;;;;;;;;;10.80;5.40;;;;;;5392538;26;19937;-76
2024/04/13 05:52:47;;;;;;;;;;;10.90;5.80;;;;;;5414062;26;20001;-76
2024/04/13 05:55:13;;;;;;;;;;;10.90;5.30;;;;;;5420916;26;19953;-76
2024/04/13 05:57:39;;;;;;;;;;;11.00;5.90;;;;;;5438937;26;20000;-76
2024/04/13 06:00:05;;;;;;;;;;;11.00;6.70;;;;;;5416838;26;19963;-76
2024/04/13 06:02:30;;;;;;;;;;;11.10;6.50;;;;;;5440283;26;19936;-77
2024/04/13 06:04:56;;;;;;;;;;;11.30;6.70;;;;;;5431364;26;19935;-77
2024/04/13 06:07:23;;;;;;;;;;;11.30;7.40;;;;;;5425309;26;19929;-77
2024/04/13 06:09:49;;;;;;;;;;;11.50;8.00;;;;;;5426759;26;20004;-78
2024/04/13 06:12:14;;;;;;;;;;;11.60;5.80;;;;;;5434746;26;19929;-77
2024/04/13 06:14:41;;;;;;;;;;;11.70;8.30;;;;;;5431343;26;19935;-78
2024/04/13 06:17:18;;;;;;;;;;;11.80;5.30;;;;;;5427628;26;19936;-75
2024/04/13 06:19:47;;;;;;;;;;;11.90;8.30;;;;;;5423089;26;19929;-76
2024/04/13 06:22:13;;;;;;;;;;;12.00;8.60;;;;;;5445330;26;19935;-76
2024/04/13 06:24:39;;;;;;;;;;;12.20;7.30;;;;;;5428596;26;19929;-76
2024/04/13 06:27:05;;;;;;;;;;;12.30;9.20;;;;;;5434949;26;21654;-76
2024/04/13 06:29:31;;;;;;;;;;;12.50;9.20;;;;;;5436321;26;19929;-77
2024/04/13 06:31:56;;;;;;;;;;;12.60;9.90;;;;;;5422954;26;19998;-78
2024/04/13 06:34:22;;;;;;;;;;;12.80;7.80;;;;;;5422756;26;19929;-76
2024/04/13 06:36:48;;;;;;;;;;;13.00;7.30;;;;;;5425627;26;19929;-76
2024/04/13 06:39:17;;;;;;;;;;;13.00;3.00;;;;;;5441563;26;19935;-76
2024/04/13 06:41:43;;;;;;;;;;;13.20;2.10;;;;;;5422025;26;19929;-76
2024/04/13 06:44:09;;;;;;;;;;;13.30;2.60;;;;;;5422641;26;19940;-76
2024/04/13 06:46:35;;;;;;;;;;;13.40;1.00;;;;;;5422595;26;19929;-76
2024/04/13 06:49:06;;;;;;;;;;;13.50;1.00;;;;;;5418651;26;19929;-76
2024/04/13 06:51:35;;;;;;;;;;;13.60;1.00;;;;;;5414580;26;19929;-76
2024/04/13 06:54:01;;;;;;;;;;;13.70;1.00;;;;;;5416365;26;19953;-76
2024/04/13 06:56:26;;;;;;;;;;;13.80;1.00;;;;;;5416854;26;19936;-76
2024/04/13 06:58:52;;;;;;;;;;;14.10;1.00;;;;;;5424623;26;19928;-76
2024/04/13 07:01:17;;;;;;;;;;;14.30;1.00;;;;;;5404096;26;20277;-76
2024/04/13 07:03:43;;;;;;;;;;;14.40;1.00;;;;;;5407051;26;19929;-76
2024/04/13 07:06:09;;;;;;;;;;;14.40;1.00;;;;;;5408942;26;20003;-76
2024/04/13 07:08:35;;;;;;;;;;;14.70;1.00;;;;;;5407227;26;19929;-76
2024/04/13 07:11:01;;;;;;;;;;;14.90;1.00;;;;;;5420309;26;19929;-76
2024/04/13 07:13:36;;;;;;;;;;;15.00;1.00;;;;;;5428916;26;20280;-76
2024/04/13 07:16:01;;;;;;;;;;;15.10;1.00;;;;;;5420212;26;19940;-76
2024/04/13 07:18:27;;;;;;;;;;;15.30;1.00;;;;;;5410110;26;19929;-76
2024/04/13 07:20:53;;;;;;;;;;;15.40;1.00;;;;;;5414707;26;19929;-76
2024/04/13 07:23:18;;;;;;;;;;;15.80;1.00;;;;;;5419967;26;19968;-77
2024/04/13 07:25:44;;;;;;;;;;;15.80;1.00;;;;;;5438210;26;19929;-77
2024/04/13 07:28:11;;;;;;;;;;;16.00;1.00;;;;;;5428490;26;19936;-78
2024/04/13 07:30:37;;;;;;;;;;;16.20;1.00;;;;;;5429068;26;20365;-77
2024/04/13 07:33:03;;;;;;;;;;;16.30;1.00;;;;;;5420290;26;19936;-77
2024/04/13 07:35:28;;;;;;;;;;;16.40;1.00;;;;;;5419695;26;19936;-77
2024/04/13 07:37:54;;;;;;;;;;;16.50;1.00;;;;;;5423934;26;20010;-77
2024/04/13 07:40:19;;;;;;;;;;;16.60;1.00;;;;;;5419822;26;19929;-77
2024/04/13 07:42:45;;;;;;;;;;;16.70;1.00;;;;;;5420097;26;19940;-76
2024/04/13 07:45:11;;;;;;;;;;;16.70;1.00;;;;;;5420070;26;19929;-76
2024/04/13 07:47:36;;;;;;;;;;;16.90;1.00;;;;;;5413694;26;20002;-76
2024/04/13 07:50:11;;;;;;;;;;;16.90;1.00;;;;;;5427344;26;20001;-76
2024/04/13 07:52:37;;;;;;;;;;;17.10;1.00;;;;;;5419490;26;19929;-77
2024/04/13 07:55:06;;;;;;;;;;;17.40;1.00;;;;;;5428464;26;19943;-77
2024/04/13 07:57:32;;;;;;;;;;;17.40;1.00;;;;;;5424094;26;20369;-76
2024/04/13 07:59:59;;;;;;;;;;;17.90;1.00;;;;;;5419429;26;19929;-76
2024/04/13 08:02:25;;;;;;;;;;;17.90;1.00;;;;;;5404768;26;19929;-76
2024/04/13 08:04:53;;;;;;;;;;;18.00;1.00;;;;;;5417665;26;19936;-77
2024/04/13 08:07:19;;;;;;;;;;;18.10;1.00;;;;;;5397062;26;19928;-77
2024/04/13 08:09:47;;;;;;;;;;;18.20;1.00;;;;;;5423683;26;19929;-77
2024/04/13 08:12:13;;;;;;;;;;;18.50;1.00;;;;;;5406422;26;19944;-77
2024/04/13 08:14:38;;;;;;;;;;;18.60;1.00;;;;;;5405609;26;19941;-78
2024/04/13 08:17:04;;;;;;;;;;;18.90;1.00;;;;;;5413955;26;19929;-77
2024/04/13 08:19:30;;;;;;;;;;;19.20;1.00;;;;;;5417223;26;19935;-77
2024/04/13 08:21:56;;;;;;;;;;;19.10;1.00;;;;;;5418289;26;20259;-76
2024/04/13 08:24:22;;;;;;;;;;;19.50;1.00;;;;;;5419266;26;19929;-76
2024/04/13 08:26:47;;;;;;;;;;;19.50;1.00;;;;;;5416182;26;19998;-76
2024/04/13 08:29:17;;;;;;;;;;;19.80;1.00;;;;;;5418508;26;19940;-77
2024/04/13 08:31:47;;;;;;;;;;;19.60;1.00;;;;;;5419002;26;19973;-77
2024/04/13 08:34:14;;;;;;;;;;;19.40;1.00;;;;;;5388701;26;19930;-76
2024/04/13 08:36:39;;;;;;;;;;;19.30;1.00;;;;;;5420245;26;19940;-76
2024/04/13 08:39:09;;;;;;;;;;;19.40;1.00;;;;;;5403362;26;20401;-76
2024/04/13 08:41:41;;;;;;;;;;;19.50;1.00;;;;;;5410303;26;19941;-76
2024/04/13 08:44:08;;;;;;;;;;;19.40;1.00;;;;;;5419076;26;19929;-76
2024/04/13 08:46:35;;;;;;;;;;;19.50;1.00;;;;;;5419302;26;19929;-78
2024/04/13 08:49:06;;;;;;;;;;;19.70;1.00;;;;;;5419324;26;19929;-78
2024/04/13 08:51:33;;;;;;;;;;;19.60;1.00;;;;;;5419046;26;19940;-78
2024/04/13 08:53:59;;;;;;;;;;;19.40;1.00;;;;;;5415838;26;19941;-78
2024/04/13 08:56:36;;;;;;;;;;;19.40;1.00;;;;;;5418583;26;19929;-78
2024/04/13 08:59:07;;;;;;;;;;;19.80;1.00;;;;;;5418943;26;19929;-78
2024/04/13 09:01:37;;;;;;;;;;;19.90;1.00;;;;;;5418299;26;19936;-78
2024/04/13 09:04:03;;;;;;;;;;;20.10;1.00;;;;;;5419156;26;19962;-79
2024/04/13 09:06:28;;;;;;;;;;;20.20;1.00;;;;;;5418781;26;19929;-78
2024/04/13 09:09:08;;;;;;;;;;;20.10;1.00;;;;;;5418747;26;19936;-78
2024/04/13 09:11:37;;;;;;;;;;;20.10;1.00;;;;;;5417705;26;19932;-78
2024/04/13 09:14:03;;;;;;;;;;;20.50;1.00;;;;;;5418580;26;19965;-78
2024/04/13 09:16:30;;;;;;;;;;;20.80;1.00;;;;;;5418576;26;19929;-78
2024/04/13 09:18:59;;;;;;;;;;;21.10;1.00;;;;;;5418667;26;19936;-79
2024/04/13 09:21:32;;;;;;;;;;;21.00;1.00;;;;;;5418268;26;19933;-78
2024/04/13 09:23:58;;;;;;;;;;;21.30;1.00;;;;;;5416636;26;20359;-78
2024/04/13 09:26:39;;;;;;;;;;;21.30;1.00;;;;;;5418248;26;19961;-78
2024/04/13 09:29:05;;;;;;;;;;;21.60;1.00;;;;;;5393979;26;19929;-78
2024/04/13 09:31:31;;;;;;;;;;;21.80;1.00;;;;;;5412582;26;20010;-78
2024/04/13 09:33:56;;;;;;;;;;;21.70;1.00;;;;;;5415227;26;19929;-79
2024/04/13 09:36:24;;;;;;;;;;;21.70;1.00;;;;;;5418418;26;19929;-80
2024/04/13 09:38:59;;;;;;;;;;;22.00;1.00;;;;;;5417912;26;19933;-80
2024/04/13 09:41:25;;;;;;;;;;;21.90;1.00;;;;;;5389734;26;19929;-80
2024/04/13 09:43:51;;;;;;;;;;;22.00;1.00;;;;;;5408963;26;19939;-80
2024/04/13 09:46:18;;;;;;;;;;;22.20;1.00;;;;;;5418132;26;19929;-80
2024/04/13 09:48:43;;;;;;;;;;;22.40;1.00;;;;;;5416655;26;20372;-80
2024/04/13 09:51:09;;;;;;;;;;;22.10;1.00;;;;;;5418306;26;19935;-81
2024/04/13 09:53:36;;;;;;;;;;;22.30;1.00;;;;;;5418059;26;19936;-81
2024/04/13 09:56:02;;;;;;;;;;;22.50;1.00;;;;;;5417725;26;19929;-81
2024/04/13 09:58:36;;;;;;;;;;;22.60;1.00;;;;;;5417616;26;19929;-81
2024/04/13 10:01:04;;;;;;;;;;;22.60;1.00;;;;;;5417429;26;19933;-82
2024/04/13 10:03:31;;;;;;;;;;;22.40;1.00;;;;;;5408520;26;19933;-82
2024/04/13 10:06:00;;;;;;;;;;;22.20;1.00;;;;;;5416907;26;19936;-81
2024/04/13 10:08:27;;;;;;;;;;;22.20;1.00;;;;;;5416243;26;19929;-80
2024/04/13 10:11:02;;;;;;;;;;;21.80;1.00;;;;;;5416894;26;19944;-80
2024/04/13 10:13:36;;;;;;;;;;;21.80;1.00;;;;;;5417498;26;20365;-80
2024/04/13 10:16:03;;;;;;;;;;;22.00;1.00;;;;;;5417723;26;19933;-80
2024/04/13 10:18:28;;;;;;;;;;;22.30;1.00;;;;;;5417864;26;19997;-80
2024/04/13 10:21:03;;;;;;;;;;;22.30;1.00;;;;;;5417858;26;20364;-80
2024/04/13 10:23:42;;;;;;;;;;;22.40;1.00;;;;;;5395045;26;19929;-80
2024/04/13 10:26:08;;;;;;;;;;;22.60;1.00;;;;;;5415310;26;19936;-80
2024/04/13 10:28:35;;;;;;;;;;;22.90;1.00;;;;;;5417396;26;19957;-80
2024/04/13 10:31:16;;;;;;;;;;;23.00;1.00;;;;;;5420819;26;20377;-81
2024/04/13 10:33:51;;;;;;;;;;;23.30;1.00;;;;;;5429329;26;19944;-80
2024/04/13 10:36:25;;;;;;;;;;;23.30;1.00;;;;;;5417637;26;20388;-81
2024/04/13 10:38:54;;;;;;;;;;;23.30;1.00;;;;;;5417139;26;20370;-81
2024/04/13 10:41:28;;;;;;;;;;;23.60;1.00;;;;;;5417458;26;19941;-81
2024/04/13 10:44:00;;;;;;;;;;;23.60;1.00;;;;;;5449217;26;20307;-81
2024/04/13 10:46:30;;;;;;;;;;;23.50;1.00;;;;;;5421203;26;19933;-81
2024/04/13 10:48:56;;;;;;;;;;;23.40;1.00;;;;;;5420951;26;20368;-82
2024/04/13 10:51:23;;;;;;;;;;;23.70;1.00;;;;;;5421402;26;19929;-81
2024/04/13 10:53:49;;;;;;;;;;;23.80;1.00;;;;;;5420473;26;19936;-80
2024/04/13 10:56:17;;;;;;;;;;;23.80;1.00;;;;;;5420505;26;19929;-80
2024/04/13 10:58:49;;;;;;;;;;;23.80;1.00;;;;;;5420238;26;19944;-81
2024/04/13 11:01:15;;;;;;;;;;;23.60;1.00;;;;;;5420302;26;20268;-80
2024/04/13 11:03:40;;;;;;;;;;;23.60;1.00;;;;;;5420570;26;19928;-80
2024/04/13 11:06:07;;;;;;;;;;;23.60;1.00;;;;;;5425005;26;19929;-80
2024/04/13 11:08:33;;;;;;;;;;;23.70;1.00;;;;;;5435863;26;19928;-80
2024/04/13 11:11:01;;;;;;;;;;;23.40;1.00;;;;;;5398961;26;19936;-80
2024/04/13 11:13:30;;;;;;;;;;;23.30;1.00;;;;;;5420309;26;19970;-80
2024/04/13 11:15:56;;;;;;;;;;;23.20;1.00;;;;;;5418427;26;19929;-80
2024/04/13 11:18:35;;;;;;;;;;;23.20;1.00;;;;;;5412330;26;19940;-80
2024/04/13 11:21:04;;;;;;;;;;;23.40;1.00;;;;;;5416059;26;19957;-78
2024/04/13 11:23:31;;;;;;;;;;;23.20;1.00;;;;;;5408988;26;19998;-77
2024/04/13 11:25:59;;;;;;;;;;;23.00;1.00;;;;;;5417933;26;19929;-77
2024/04/13 11:28:25;;;;;;;;;;;23.40;1.00;;;;;;5419944;26;19936;-77
2024/04/13 11:30:53;;;;;;;;;;;23.60;1.00;;;;;;5420056;26;19937;-77
2024/04/13 11:33:19;;;;;;;;;;;24.00;1.00;;;;;;5418445;26;19929;-77
2024/04/13 11:35:57;;;;;;;;;;;24.00;1.00;;;;;;5420255;26;20267;-78
2024/04/13 11:38:26;;;;;;;;;;;23.90;1.00;;;;;;5419508;26;19937;-77
2024/04/13 11:40:52;;;;;;;;;;;24.00;1.00;;;;;;5419891;26;20400;-78
2024/04/13 11:43:17;;;;;;;;;;;24.20;1.00;;;;;;5419342;26;19936;-77
2024/04/13 11:45:44;;;;;;;;;;;24.20;1.00;;;;;;5419768;26;19936;-77
2024/04/13 11:48:10;;;;;;;;;;;23.80;1.00;;;;;;5419781;26;19929;-80
2024/04/13 11:50:41;;;;;;;;;;;24.00;1.00;;;;;;5420186;26;19935;-78
2024/04/13 11:53:11;;;;;;;;;;;24.00;1.00;;;;;;5414060;26;19929;-78
2024/04/13 11:55:37;;;;;;;;;;;24.10;1.00;;;;;;5419488;26;19929;-79
2024/04/13 11:58:03;;;;;;;;;;;24.30;1.00;;;;;;5419412;26;19962;-78
2024/04/13 12:00:28;;;;;;;;;;;24.60;1.00;;;;;;5420019;26;19929;-79
2024/04/13 12:02:56;;;;;;;;;;;24.50;1.00;;;;;;5419108;26;19998;-80
2024/04/13 12:05:21;;;;;;;;;;;24.60;1.00;;;;;;5427747;26;19937;-80
2024/04/13 12:07:47;;;;;;;;;;;24.70;1.00;;;;;;5416850;26;19929;-79
2024/04/13 12:10:13;;;;;;;;;;;24.70;1.00;;;;;;5419332;26;19929;-78
2024/04/13 12:12:38;;;;;;;;;;;24.90;1.00;;;;;;5419366;26;19936;-78
2024/04/13 12:15:04;;;;;;;;;;;25.20;1.00;;;;;;5419436;26;19929;-79
2024/04/13 12:17:30;;;;;;;;;;;25.20;1.00;;;;;;5419516;26;19936;-79
2024/04/13 12:19:55;;;;;;;;;;;24.80;1.00;;;;;;5419257;26;19939;-79
2024/04/13 12:22:21;;;;;;;;;;;24.80;1.00;;;;;;5419445;26;19997;-79
2024/04/13 12:24:46;;;;;;;;;;;24.80;1.00;;;;;;5417409;26;19968;-79
2024/04/13 12:27:12;;;;;;;;;;;25.00;1.00;;;;;;5419097;26;19939;-79
2024/04/13 12:29:39;;;;;;;;;;;25.00;1.00;;;;;;5411237;26;19940;-79
2024/04/13 12:32:05;;;;;;;;;;;24.80;1.00;;;;;;5405623;26;19933;-79
2024/04/13 12:34:36;;;;;;;;;;;24.80;1.00;;;;;;5419265;26;19936;-79
2024/04/13 12:37:01;;;;;;;;;;;24.90;1.00;;;;;;5417416;26;20368;-79
2024/04/13 12:39:29;;;;;;;;;;;24.80;1.00;;;;;;5416430;26;19998;-79
2024/04/13 12:41:55;;;;;;;;;;;24.90;1.00;;;;;;5405171;26;19929;-79
2024/04/13 12:44:21;;;;;;;;;;;25.00;1.00;;;;;;5418659;26;19936;-79
2024/04/13 12:46:47;;;;;;;;;;;24.80;1.00;;;;;;5419088;26;19929;-79
2024/04/13 12:49:13;;;;;;;;;;;25.00;1.00;;;;;;5419053;26;19936;-79
2024/04/13 12:51:39;;;;;;;;;;;25.30;1.00;;;;;;5418830;26;19929;-79
2024/04/13 12:54:05;;;;;;;;;;;25.30;1.00;;;;;;5413008;26;19961;-79
2024/04/13 12:56:30;;;;;;;;;;;25.50;1.00;;;;;;5418779;26;19929;-79
2024/04/13 12:58:56;;;;;;;;;;;25.60;1.00;;;;;;5418323;26;20275;-79
2024/04/13 13:01:24;;;;;;;;;;;25.40;1.00;;;;;;5417603;26;19929;-79
2024/04/13 13:03:49;;;;;;;;;;;25.70;1.00;;;;;;5417625;26;19940;-79
2024/04/13 13:06:15;;;;;;;;;;;25.80;1.00;;;;;;5417096;26;20253;-79
2024/04/13 13:08:41;;;;;;;;;;;25.90;1.00;;;;;;5419105;26;19929;-79
2024/04/13 13:11:07;;;;;;;;;;;25.50;1.00;;;;;;5418536;26;19941;-79
2024/04/13 13:13:33;;;;;;;;;;;25.50;1.00;;;;;;5392920;26;19933;-79
2024/04/13 13:15:59;;;;;;;;;;;25.50;1.00;;;;;;5405702;26;19929;-79
2024/04/13 13:18:26;;;;;;;;;;;25.60;1.00;;;;;;5418155;26;19930;-77
2024/04/13 13:20:52;;;;;;;;;;;25.50;1.00;;;;;;5418226;26;19929;-78
2024/04/13 13:23:18;;;;;;;;;;;25.80;1.00;;;;;;5418611;26;19937;-78
2024/04/13 13:25:44;;;;;;;;;;;25.80;1.00;;;;;;5418089;26;19935;-78
2024/04/13 13:28:09;;;;;;;;;;;25.90;1.00;;;;;;5409771;26;19936;-78
2024/04/13 13:30:36;;;;;;;;;;;26.10;1.00;;;;;;5417786;26;19929;-78
2024/04/13 13:33:01;;;;;;;;;;;26.00;1.00;;;;;;5407037;26;19996;-78
2024/04/13 13:35:29;;;;;;;;;;;25.60;1.00;;;;;;5405265;26;19940;-78
2024/04/13 13:38:00;;;;;;;;;;;25.70;1.00;;;;;;5408939;26;19930;-79
2024/04/13 13:40:25;;;;;;;;;;;25.70;1.00;;;;;;5407323;26;19929;-78
2024/04/13 13:42:51;;;;;;;;;;;25.60;1.00;;;;;;5417070;26;20357;-79
2024/04/13 13:45:16;;;;;;;;;;;25.40;1.00;;;;;;5415175;26;20014;-79
2024/04/13 13:47:42;;;;;;;;;;;25.50;1.00;;;;;;5417025;26;20001;-78
2024/04/13 13:50:08;;;;;;;;;;;25.60;1.00;;;;;;5417620;26;20022;-78
2024/04/13 13:52:33;;;;;;;;;;;25.80;1.00;;;;;;5415572;26;19936;-78
2024/04/13 13:54:59;;;;;;;;;;;25.80;1.00;;;;;;5418152;26;19929;-78
2024/04/13 13:57:24;;;;;;;;;;;26.10;1.00;;;;;;5419352;26;19933;-78
2024/04/13 13:59:50;;;;;;;;;;;26.40;1.00;;;;;;5417983;26;19940;-79
2024/04/13 14:02:16;;;;;;;;;;;26.40;1.00;;;;;;5417717;26;19940;-78
2024/04/13 14:04:47;;;;;;;;;;;26.50;1.00;;;;;;5417865;26;19937;-79
2024/04/13 14:07:17;;;;;;;;;;;26.30;1.00;;;;;;5417784;26;19962;-78
2024/04/13 14:09:43;;;;;;;;;;;26.00;1.00;;;;;;5417981;26;19935;-78
2024/04/13 14:12:09;;;;;;;;;;;26.40;1.00;;;;;;5414420;26;19929;-78
2024/04/13 14:14:36;;;;;;;;;;;26.60;1.00;;;;;;5417610;26;19997;-78
2024/04/13 14:17:01;;;;;;;;;;;26.60;1.00;;;;;;5413098;26;19936;-78
2024/04/13 14:19:27;;;;;;;;;;;26.50;1.00;;;;;;5417559;26;19997;-78
2024/04/13 14:21:53;;;;;;;;;;;26.70;1.00;;;;;;5420734;26;20273;-78
2024/04/13 14:24:25;;;;;;;;;;;26.60;1.00;;;;;;5421143;26;19929;-78
2024/04/13 14:26:51;;;;;;;;;;;26.50;1.00;;;;;;5420814;26;19937;-78
2024/04/13 14:29:17;;;;;;;;;;;26.50;1.00;;;;;;5419063;26;20364;-78
2024/04/13 14:31:42;;;;;;;;;;;26.60;1.00;;;;;;5420747;26;19929;-78